createdAt,value
2023-05-19T00:00:28.628Z,3.25
2023-05-19T00:02:56.208Z,3.17
2023-05-19T00:05:24.832Z,3.58
2023-05-19T00:07:53.464Z,3.30
2023-05-19T00:10:20.601Z,2.97
2023-05-19T00:12:47.790Z,2.80
2023-05-19T00:15:15.088Z,3.30
2023-05-19T00:17:42.440Z,3.15
2023-05-19T00:20:09.569Z,3.55
2023-05-19T00:22:36.948Z,3.28
2023-05-19T00:25:04.032Z,3.20
2023-05-19T00:27:30.734Z,3.08
2023-05-19T00:29:57.419Z,3.35
2023-05-19T00:32:24.065Z,3.65
2023-05-19T00:34:50.741Z,3.92
2023-05-19T00:37:17.380Z,3.58
2023-05-19T00:39:44.070Z,3.40
2023-05-19T00:42:10.749Z,3.45
2023-05-19T00:44:41.402Z,3.55
2023-05-19T00:47:08.808Z,3.50
2023-05-19T00:49:36.080Z,3.75
2023-05-19T00:52:03.199Z,3.30
2023-05-19T00:54:29.879Z,3.40
2023-05-19T00:56:58.282Z,3.47
2023-05-19T00:59:25.008Z,3.50
2023-05-19T01:01:52.194Z,3.45
2023-05-19T01:04:21.676Z,3.65
2023-05-19T01:06:58.330Z,4.05
2023-05-19T01:09:25.091Z,3.70
2023-05-19T01:11:52.326Z,3.70
2023-05-19T01:14:20.439Z,3.72
2023-05-19T01:17:34.304Z,3.70
2023-05-19T01:20:19.841Z,3.60
2023-05-19T01:23:01.560Z,3.60
2023-05-19T01:26:04.582Z,3.85
2023-05-19T01:29:09.119Z,3.90
2023-05-19T01:31:39.918Z,4.32
2023-05-19T01:34:07.175Z,3.70
2023-05-19T01:36:33.981Z,3.88
2023-05-19T01:39:02.412Z,3.92
2023-05-19T01:41:30.534Z,4.22
2023-05-19T01:43:58.231Z,4.20
2023-05-19T01:46:25.322Z,4.18
2023-05-19T01:48:52.635Z,3.80
2023-05-19T01:51:19.442Z,4.03
2023-05-19T01:53:46.182Z,3.90
2023-05-19T01:56:19.268Z,4.40
2023-05-19T01:58:48.709Z,4.32
2023-05-19T02:01:34.009Z,3.95
2023-05-19T02:04:09.967Z,4.68
2023-05-19T02:06:41.536Z,4.35
2023-05-19T02:09:13.649Z,4.22
2023-05-19T02:11:45.756Z,4.18
2023-05-19T02:14:24.835Z,3.72
2023-05-19T02:16:52.868Z,4.20
2023-05-19T02:19:26.726Z,4.28
2023-05-19T02:21:53.722Z,4.13
2023-05-19T02:24:22.623Z,3.80
2023-05-19T02:26:51.707Z,3.67
2023-05-19T02:29:18.905Z,3.30
2023-05-19T02:31:45.777Z,3.35
2023-05-19T02:34:12.556Z,4.13
2023-05-19T02:36:43.067Z,4.07
2023-05-19T02:39:10.930Z,4.20
2023-05-19T02:41:38.305Z,4.07
2023-05-19T02:44:05.212Z,3.05
2023-05-19T02:46:31.877Z,3.67
2023-05-19T02:48:58.699Z,3.17
2023-05-19T02:51:25.436Z,3.40
2023-05-19T02:53:52.106Z,4.38
2023-05-19T02:56:18.751Z,4.00
2023-05-19T02:58:45.398Z,4.07
2023-05-19T03:01:12.119Z,4.70
2023-05-19T03:03:38.872Z,4.22
2023-05-19T03:06:08.571Z,4.88
2023-05-19T03:08:36.259Z,4.30
2023-05-19T03:11:03.317Z,4.25
2023-05-19T03:13:30.042Z,4.50
2023-05-19T03:15:58.675Z,4.03
2023-05-19T03:18:26.553Z,4.35
2023-05-19T03:20:53.993Z,4.05
2023-05-19T03:23:21.900Z,4.47
2023-05-19T03:25:48.711Z,3.97
2023-05-19T03:28:15.557Z,4.68
2023-05-19T03:30:42.220Z,4.40
2023-05-19T03:33:09.088Z,4.90
2023-05-19T03:35:35.872Z,5.50
2023-05-19T03:38:02.514Z,4.10
2023-05-19T03:40:29.211Z,4.65
2023-05-19T03:42:56.635Z,4.40
2023-05-19T03:45:23.319Z,4.88
2023-05-19T03:47:50.014Z,4.63
2023-05-19T03:50:16.697Z,4.35
2023-05-19T03:52:45.402Z,4.55
2023-05-19T03:55:14.583Z,4.57
2023-05-19T03:57:41.512Z,4.57
2023-05-19T04:00:11.087Z,4.72
2023-05-19T04:02:37.912Z,5.13
2023-05-19T04:05:05.074Z,4.90
2023-05-19T04:07:31.879Z,5.18
2023-05-19T04:09:58.602Z,4.35
2023-05-19T04:12:25.253Z,4.60
2023-05-19T04:14:51.949Z,4.82
2023-05-19T04:17:18.607Z,4.55
2023-05-19T04:19:45.280Z,5.25
2023-05-19T04:22:11.973Z,4.55
2023-05-19T04:24:38.599Z,4.72
2023-05-19T04:27:05.454Z,5.05
2023-05-19T04:29:32.548Z,4.28
2023-05-19T04:32:00.842Z,4.95
2023-05-19T04:34:28.593Z,4.95
2023-05-19T04:36:55.449Z,4.85
2023-05-19T04:39:22.063Z,5.03
2023-05-19T04:41:48.679Z,3.80
2023-05-19T04:44:18.032Z,3.80
2023-05-19T04:46:46.065Z,4.18
2023-05-19T04:49:12.745Z,3.50
2023-05-19T04:51:41.548Z,4.43
2023-05-19T04:54:09.935Z,4.05
2023-05-19T04:56:36.860Z,3.85
2023-05-19T04:59:03.687Z,4.13
2023-05-19T05:01:31.153Z,3.17
2023-05-19T05:03:59.137Z,3.72
2023-05-19T05:06:26.537Z,3.97
2023-05-19T05:08:53.272Z,4.20
2023-05-19T05:11:20.579Z,2.10
2023-05-19T05:13:47.594Z,2.85
2023-05-19T05:16:14.898Z,4.03
2023-05-19T05:18:44.342Z,3.92
2023-05-19T05:21:12.188Z,4.57
2023-05-19T05:23:39.171Z,5.55
2023-05-19T05:26:16.855Z,4.65
2023-05-19T05:28:43.542Z,3.53
2023-05-19T05:31:10.163Z,2.60
2023-05-19T05:33:38.387Z,4.10
2023-05-19T05:36:05.376Z,1.80
2023-05-19T05:38:32.113Z,2.40
2023-05-19T05:40:58.756Z,2.53
2023-05-19T05:43:25.391Z,4.13
2023-05-19T05:45:52.055Z,2.80
2023-05-19T05:48:19.053Z,4.60
2023-05-19T05:50:46.007Z,1.85
2023-05-19T05:53:19.321Z,2.03
2023-05-19T05:55:47.257Z,1.75
2023-05-19T05:58:14.940Z,2.38
2023-05-19T06:00:45.369Z,4.57
2023-05-19T06:03:12.343Z,2.88
2023-05-19T06:05:39.151Z,3.78
2023-05-19T06:08:06.418Z,3.70
2023-05-19T06:10:33.596Z,2.95
2023-05-19T06:13:01.296Z,1.75
2023-05-19T06:15:28.033Z,4.63
2023-05-19T06:17:54.915Z,2.08
2023-05-19T06:20:21.877Z,1.98
2023-05-19T06:22:48.564Z,1.95
2023-05-19T06:25:15.679Z,2.40
2023-05-19T06:27:42.325Z,2.72
2023-05-19T06:30:09.385Z,3.75
2023-05-19T06:32:36.080Z,2.13
2023-05-19T06:35:02.805Z,1.98
2023-05-19T06:37:29.492Z,3.67
2023-05-19T06:39:56.275Z,2.10
2023-05-19T06:42:23.992Z,4.32
2023-05-19T06:44:51.482Z,1.90
2023-05-19T06:47:18.817Z,1.90
2023-05-19T06:49:46.152Z,3.17
2023-05-19T06:52:12.798Z,4.18
2023-05-19T06:54:39.617Z,2.95
2023-05-19T06:57:06.367Z,2.58
2023-05-19T06:59:33.184Z,2.08
2023-05-19T07:01:59.893Z,4.57
2023-05-19T07:04:27.448Z,2.70
2023-05-19T07:06:54.921Z,2.55
2023-05-19T07:09:21.852Z,4.80
2023-05-19T07:11:48.674Z,1.80
2023-05-19T07:14:15.303Z,3.83
2023-05-19T07:16:42.005Z,3.03
2023-05-19T07:19:08.819Z,1.63
2023-05-19T07:21:35.718Z,2.20
2023-05-19T07:24:02.375Z,2.10
2023-05-19T07:26:29.464Z,2.67
2023-05-19T07:28:56.718Z,2.67
2023-05-19T07:31:23.457Z,2.00
2023-05-19T07:33:51.683Z,2.25
2023-05-19T07:36:20.769Z,2.88
2023-05-19T07:38:47.636Z,2.35
2023-05-19T07:41:14.304Z,3.33
2023-05-19T07:43:41.089Z,2.50
2023-05-19T07:46:07.880Z,2.15
2023-05-19T07:48:34.601Z,3.33
2023-05-19T07:51:02.097Z,2.40
2023-05-19T07:53:28.838Z,1.70
2023-05-19T07:55:57.763Z,2.35
2023-05-19T07:58:25.299Z,1.92
2023-05-19T08:00:53.137Z,1.40
2023-05-19T08:03:20.526Z,3.05
2023-05-19T08:05:47.708Z,2.10
2023-05-19T08:08:16.744Z,1.85
2023-05-19T08:10:43.840Z,1.77
2023-05-19T08:13:10.605Z,2.00
2023-05-19T08:15:37.527Z,2.95
2023-05-19T08:18:05.085Z,2.42
2023-05-19T08:20:32.395Z,2.05
2023-05-19T08:22:59.551Z,1.55
2023-05-19T08:25:26.215Z,1.77
2023-05-19T08:27:52.830Z,2.17
2023-05-19T08:30:19.564Z,1.92
2023-05-19T08:32:46.409Z,1.98
2023-05-19T08:35:13.080Z,0.65
2023-05-19T08:37:39.830Z,1.67
2023-05-19T08:40:08.779Z,1.60
2023-05-19T08:42:35.515Z,1.73
2023-05-19T08:45:02.540Z,1.60
2023-05-19T08:47:29.983Z,1.90
2023-05-19T08:50:04.844Z,1.63
2023-05-19T08:52:35.472Z,1.98
2023-05-19T08:55:27.563Z,1.67
2023-05-19T08:57:54.538Z,2.40
2023-05-19T09:00:22.449Z,1.80
2023-05-19T09:02:59.890Z,1.63
2023-05-19T09:05:33.427Z,1.92
2023-05-19T09:08:02.659Z,1.92
2023-05-19T09:10:29.449Z,1.80
2023-05-19T09:13:03.220Z,1.10
2023-05-19T09:15:31.713Z,1.60
2023-05-19T09:18:13.142Z,1.80
2023-05-19T09:20:40.693Z,1.63
2023-05-19T09:23:08.257Z,0.68
2023-05-19T09:25:35.235Z,1.95
2023-05-19T09:28:02.173Z,1.52
2023-05-19T09:30:28.910Z,1.90
2023-05-19T09:32:55.661Z,1.60
2023-05-19T09:35:22.453Z,1.67
2023-05-19T09:37:49.204Z,1.23
2023-05-19T09:40:16.169Z,2.03
2023-05-19T09:42:44.038Z,2.10
2023-05-19T09:45:11.279Z,1.77
2023-05-19T09:47:39.612Z,1.50
2023-05-19T09:50:08.800Z,1.70
2023-05-19T09:52:40.669Z,1.70
2023-05-19T09:55:11.131Z,2.10
2023-05-19T09:57:38.835Z,1.98
2023-05-19T10:00:17.305Z,2.42
2023-05-19T10:02:48.456Z,1.65
2023-05-19T10:05:17.638Z,1.63
2023-05-19T10:07:45.716Z,1.85
2023-05-19T10:10:14.057Z,1.63
2023-05-19T10:12:42.267Z,1.60
2023-05-19T10:15:14.154Z,1.65
2023-05-19T10:17:42.261Z,1.52
2023-05-19T10:20:14.131Z,1.60
2023-05-19T10:22:42.334Z,1.85
2023-05-19T10:25:10.591Z,1.52
2023-05-19T10:27:41.719Z,1.58
2023-05-19T10:30:14.418Z,2.30
2023-05-19T10:32:44.827Z,1.67
2023-05-19T10:35:32.417Z,1.42
2023-05-19T10:38:15.749Z,1.88
2023-05-19T10:41:10.213Z,1.85
2023-05-19T10:43:43.765Z,1.35
2023-05-19T10:46:10.492Z,1.40
2023-05-19T10:48:37.295Z,1.80
2023-05-19T10:51:04.695Z,0.95
2023-05-19T10:53:32.910Z,1.60
2023-05-19T10:56:06.754Z,2.53
2023-05-19T10:58:43.270Z,1.63
2023-05-19T11:01:17.318Z,1.60
2023-05-19T11:03:53.155Z,1.67
2023-05-19T11:06:33.856Z,2.30
2023-05-19T11:09:10.450Z,1.58
2023-05-19T11:11:44.659Z,1.02
2023-05-19T11:14:14.752Z,1.63
2023-05-19T11:16:45.710Z,1.30
2023-05-19T11:19:40.995Z,1.77
2023-05-19T11:22:10.045Z,0.45
2023-05-19T11:24:51.907Z,1.95
2023-05-19T11:27:24.364Z,1.30
2023-05-19T11:29:51.877Z,1.55
2023-05-19T11:32:20.503Z,1.35
2023-05-19T11:34:49.448Z,1.88
2023-05-19T11:37:16.559Z,2.50
2023-05-19T11:39:45.244Z,2.13
2023-05-19T11:42:12.155Z,1.50
2023-05-19T11:44:41.029Z,1.55
2023-05-19T11:47:08.400Z,1.65
2023-05-19T11:49:35.290Z,1.23
2023-05-19T11:52:02.540Z,1.60
2023-05-19T11:54:33.612Z,5.15
2023-05-19T11:57:02.800Z,1.42
2023-05-19T11:59:32.785Z,6.07
2023-05-19T12:02:21.600Z,17.10
2023-05-19T12:04:49.407Z,1.40
2023-05-19T12:07:19.808Z,1.80
2023-05-19T12:09:47.391Z,1.27
2023-05-19T12:12:16.881Z,1.23
2023-05-19T12:14:44.464Z,1.80
2023-05-19T12:17:15.643Z,2.88
2023-05-19T12:19:48.058Z,1.45
2023-05-19T12:22:18.998Z,2.00
2023-05-19T12:24:46.908Z,3.20
2023-05-19T12:27:22.782Z,1.42
2023-05-19T12:29:54.826Z,1.40
2023-05-19T12:32:26.053Z,1.30
2023-05-19T12:34:53.639Z,1.38
2023-05-19T12:37:20.415Z,1.60
2023-05-19T12:39:49.015Z,1.40
2023-05-19T12:42:16.493Z,1.77
2023-05-19T12:44:48.397Z,1.48
2023-05-19T12:47:16.059Z,1.80
2023-05-19T12:50:08.570Z,1.80
2023-05-19T12:52:45.493Z,1.40
2023-05-19T12:55:12.806Z,1.38
2023-05-19T12:57:42.190Z,1.60
2023-05-19T13:00:16.599Z,2.20
2023-05-19T13:03:02.739Z,1.30
2023-05-19T13:05:34.242Z,2.65
2023-05-19T13:08:04.915Z,1.88
2023-05-19T13:10:32.900Z,1.52
2023-05-19T13:13:04.552Z,1.60
2023-05-19T13:15:34.178Z,1.13
2023-05-19T13:18:03.559Z,1.65
2023-05-19T13:20:30.966Z,5.13
2023-05-19T13:22:57.843Z,2.42
2023-05-19T13:25:24.766Z,0.88
2023-05-19T13:27:51.498Z,2.80
2023-05-19T13:30:18.904Z,0.77
2023-05-19T13:32:46.264Z,1.42
2023-05-19T13:35:14.444Z,2.75
2023-05-19T13:37:43.967Z,1.40
2023-05-19T13:40:11.595Z,1.42
2023-05-19T13:42:38.408Z,1.67
2023-05-19T13:45:05.677Z,1.35
2023-05-19T13:47:32.475Z,1.80
2023-05-19T13:49:59.277Z,1.20
2023-05-19T13:52:28.212Z,1.67
2023-05-19T13:54:56.697Z,2.50
2023-05-19T13:57:26.495Z,1.75
2023-05-19T14:00:02.676Z,1.70
2023-05-19T14:02:30.903Z,1.38
2023-05-19T14:04:58.044Z,1.80
2023-05-19T14:07:25.417Z,1.10
2023-05-19T14:09:52.577Z,1.35
2023-05-19T14:12:20.186Z,1.10
2023-05-19T14:14:48.937Z,1.45
2023-05-19T14:17:15.633Z,1.98
2023-05-19T14:19:42.390Z,1.73
2023-05-19T14:22:09.146Z,2.85
2023-05-19T14:24:35.797Z,1.25
2023-05-19T14:27:02.430Z,1.38
2023-05-19T14:29:31.005Z,1.15
2023-05-19T14:31:57.775Z,1.25
2023-05-19T14:34:24.473Z,1.30
2023-05-19T14:36:52.074Z,1.27
2023-05-19T14:39:18.784Z,0.57
2023-05-19T14:41:45.678Z,0.93
2023-05-19T14:44:12.332Z,1.30
2023-05-19T14:46:39.068Z,1.40
2023-05-19T14:49:06.472Z,3.08
2023-05-19T14:51:33.144Z,1.20
2023-05-19T14:54:00.502Z,2.45
2023-05-19T14:56:27.238Z,2.30
2023-05-19T14:58:53.873Z,1.42
2023-05-19T15:01:20.588Z,1.75
2023-05-19T15:03:47.388Z,1.33
2023-05-19T15:06:14.144Z,1.38
2023-05-19T15:08:41.481Z,1.48
2023-05-19T15:11:08.250Z,1.58
2023-05-19T15:13:34.898Z,1.85
2023-05-19T15:16:16.256Z,1.45
2023-05-19T15:18:44.650Z,1.30
2023-05-19T15:21:11.353Z,1.30
2023-05-19T15:23:37.997Z,2.42
2023-05-19T15:26:04.830Z,1.48
2023-05-19T15:28:32.061Z,1.20
2023-05-19T15:30:58.831Z,2.08
2023-05-19T15:33:25.613Z,1.50
2023-05-19T15:35:52.414Z,1.42
2023-05-19T15:38:21.960Z,1.20
2023-05-19T15:40:48.605Z,1.85
2023-05-19T15:43:15.335Z,1.30
2023-05-19T15:45:42.008Z,1.05
2023-05-19T15:48:08.813Z,1.27
2023-05-19T15:50:36.378Z,1.27
2023-05-19T15:53:03.402Z,1.58
2023-05-19T15:55:30.104Z,1.70
2023-05-19T15:57:56.767Z,1.17
2023-05-19T16:00:23.616Z,1.23
2023-05-19T16:02:50.617Z,1.30
2023-05-19T16:05:17.405Z,1.30
2023-05-19T16:07:44.060Z,1.75
2023-05-19T16:10:10.938Z,1.40
2023-05-19T16:12:40.589Z,2.42
2023-05-19T16:15:07.646Z,1.30
2023-05-19T16:17:34.821Z,1.35
2023-05-19T16:20:01.582Z,1.58
2023-05-19T16:22:28.405Z,2.28
2023-05-19T16:24:55.017Z,1.40
2023-05-19T16:27:22.614Z,1.25
2023-05-19T16:29:49.276Z,1.20
2023-05-19T16:32:15.945Z,1.40
2023-05-19T16:34:42.559Z,1.33
2023-05-19T16:37:09.212Z,1.40
2023-05-19T16:39:37.124Z,1.35
2023-05-19T16:42:06.851Z,1.20
2023-05-19T16:44:33.470Z,1.42
2023-05-19T16:47:00.189Z,1.20
2023-05-19T16:49:26.893Z,1.33
2023-05-19T16:51:54.140Z,1.15
2023-05-19T16:54:21.297Z,1.02
2023-05-19T16:56:47.989Z,1.20
2023-05-19T16:59:14.726Z,1.33
2023-05-19T17:01:41.644Z,1.50
2023-05-19T17:04:08.566Z,1.92
2023-05-19T17:06:35.784Z,1.60
2023-05-19T17:09:02.469Z,1.20
2023-05-19T17:11:29.078Z,2.00
2023-05-19T17:13:55.942Z,1.50
2023-05-19T17:16:23.413Z,1.42
2023-05-19T17:18:50.285Z,1.20
2023-05-19T17:21:17.600Z,1.77
2023-05-19T17:23:44.328Z,1.00
2023-05-19T17:26:10.929Z,1.20
2023-05-19T17:28:37.648Z,1.10
2023-05-19T17:31:12.743Z,1.50
2023-05-19T17:33:39.997Z,1.60
2023-05-19T17:36:08.417Z,1.33
2023-05-19T17:38:35.582Z,1.35
2023-05-19T17:41:04.447Z,2.03
2023-05-19T17:43:31.244Z,1.60
2023-05-19T17:45:58.900Z,1.30
2023-05-19T17:48:27.615Z,1.20
2023-05-19T17:50:54.419Z,1.42
2023-05-19T17:53:21.358Z,1.40
2023-05-19T17:55:51.954Z,1.30
2023-05-19T17:58:19.307Z,1.38
2023-05-19T18:00:46.479Z,1.50
2023-05-19T18:03:13.628Z,1.45
2023-05-19T18:05:43.056Z,1.83
2023-05-19T18:08:10.562Z,1.33
2023-05-19T18:10:38.623Z,1.95
2023-05-19T18:13:06.179Z,1.70
2023-05-19T18:15:33.185Z,1.60
2023-05-19T18:18:00.582Z,1.30
2023-05-19T18:20:27.490Z,1.60
2023-05-19T18:22:54.354Z,2.05
2023-05-19T18:25:21.055Z,2.15
2023-05-19T18:27:47.786Z,1.35
2023-05-19T18:30:14.549Z,1.50
2023-05-19T18:32:41.486Z,1.70
2023-05-19T18:35:08.875Z,1.80
2023-05-19T18:37:35.742Z,1.52
2023-05-19T18:40:02.442Z,1.48
2023-05-19T18:42:29.233Z,2.20
2023-05-19T18:44:55.897Z,1.92
2023-05-19T18:47:23.001Z,1.92
2023-05-19T18:49:50.114Z,2.20
2023-05-19T18:52:16.874Z,1.58
2023-05-19T18:54:45.871Z,1.50
2023-05-19T18:57:13.574Z,1.70
2023-05-19T18:59:40.312Z,1.40
2023-05-19T19:02:06.964Z,1.65
2023-05-19T19:04:33.808Z,1.50
2023-05-19T19:07:01.246Z,1.70
2023-05-19T19:09:27.895Z,1.92
2023-05-19T19:11:54.522Z,1.50
2023-05-19T19:14:21.188Z,1.65
2023-05-19T19:16:47.850Z,1.95
2023-05-19T19:19:14.627Z,1.67
2023-05-19T19:21:41.788Z,1.80
2023-05-19T19:24:08.467Z,2.00
2023-05-19T19:26:35.373Z,1.73
2023-05-19T19:29:02.047Z,1.70
2023-05-19T19:31:28.828Z,1.48
2023-05-19T19:33:58.855Z,1.70
2023-05-19T19:36:26.571Z,1.40
2023-05-19T19:38:53.246Z,1.90
2023-05-19T19:41:20.071Z,1.73
2023-05-19T19:43:46.762Z,1.92
2023-05-19T19:46:13.471Z,1.80
2023-05-19T19:48:40.209Z,1.90
2023-05-19T19:51:06.846Z,1.77
2023-05-19T19:53:33.472Z,2.03
2023-05-19T19:56:01.712Z,1.77
2023-05-19T19:58:29.174Z,1.92
2023-05-19T20:00:59.775Z,2.03
2023-05-19T20:03:26.930Z,2.00
2023-05-19T20:05:56.991Z,1.67
2023-05-19T20:08:24.574Z,1.30
2023-05-19T20:10:51.416Z,2.47
2023-05-19T20:13:18.962Z,1.63
2023-05-19T20:15:46.653Z,1.98
2023-05-19T20:18:13.346Z,1.83
2023-05-19T20:20:40.909Z,2.58
2023-05-19T20:23:07.967Z,2.20
2023-05-19T20:25:50.133Z,2.83
2023-05-19T20:28:25.777Z,2.25
2023-05-19T20:30:52.457Z,2.08
2023-05-19T20:33:19.102Z,1.85
2023-05-19T20:35:45.786Z,1.95
2023-05-19T20:38:12.461Z,1.90
2023-05-19T20:40:39.177Z,1.38
2023-05-19T20:43:05.962Z,1.80
2023-05-19T20:45:32.960Z,2.30
2023-05-19T20:48:00.593Z,2.00
2023-05-19T20:50:27.313Z,1.92
2023-05-19T20:52:54.067Z,1.98
2023-05-19T20:55:21.186Z,1.58
2023-05-19T20:57:47.850Z,2.20
2023-05-19T21:00:14.742Z,1.27
2023-05-19T21:02:41.453Z,1.88
2023-05-19T21:05:08.526Z,1.80
2023-05-19T21:07:35.297Z,2.17
2023-05-19T21:10:02.073Z,1.60
2023-05-19T21:12:33.752Z,2.30
2023-05-19T21:15:01.393Z,1.90
2023-05-19T21:17:28.217Z,1.83
2023-05-19T21:19:59.513Z,1.80
2023-05-19T21:22:27.056Z,1.65
2023-05-19T21:24:54.699Z,1.27
2023-05-19T21:27:21.602Z,1.80
2023-05-19T21:29:54.361Z,2.20
2023-05-19T21:32:21.691Z,1.83
2023-05-19T21:34:48.331Z,2.15
2023-05-19T21:37:17.109Z,2.00
2023-05-19T21:39:44.123Z,2.33
2023-05-19T21:42:10.790Z,2.10
2023-05-19T21:44:37.463Z,2.08
2023-05-19T21:47:04.232Z,1.63
2023-05-19T21:49:31.271Z,2.35
2023-05-19T21:51:58.286Z,1.85
2023-05-19T21:54:24.973Z,2.03
2023-05-19T21:56:51.603Z,2.10
2023-05-19T21:59:18.293Z,1.88
2023-05-19T22:01:45.063Z,1.90
2023-05-19T22:04:11.870Z,2.13
2023-05-19T22:06:38.622Z,2.15
2023-05-19T22:09:05.347Z,2.20
2023-05-19T22:11:32.005Z,1.92
2023-05-19T22:13:58.732Z,1.80
2023-05-19T22:16:25.556Z,1.92
2023-05-19T22:18:52.397Z,2.17
2023-05-19T22:21:19.109Z,2.08
2023-05-19T22:23:45.915Z,1.73
2023-05-19T22:26:12.522Z,2.17
2023-05-19T22:28:39.294Z,1.70
2023-05-19T22:31:06.248Z,2.38
2023-05-19T22:33:33.200Z,3.17
2023-05-19T22:35:59.823Z,2.67
2023-05-19T22:38:26.458Z,2.58
2023-05-19T22:40:53.133Z,2.63
2023-05-19T22:43:19.817Z,2.38
2023-05-19T22:45:46.461Z,2.40
2023-05-19T22:48:13.190Z,2.05
2023-05-19T22:50:39.823Z,2.83
2023-05-19T22:53:06.577Z,2.92
2023-05-19T22:55:33.549Z,2.78
2023-05-19T22:58:00.939Z,2.20
2023-05-19T23:00:27.577Z,2.45
2023-05-19T23:02:54.351Z,2.40
2023-05-19T23:05:21.061Z,2.83
2023-05-19T23:07:47.711Z,2.90
2023-05-19T23:10:14.339Z,2.70
2023-05-19T23:12:41.047Z,2.42
2023-05-19T23:15:08.556Z,1.65
2023-05-19T23:17:35.939Z,2.20
2023-05-19T23:20:02.756Z,2.70
2023-05-19T23:22:29.467Z,1.70
2023-05-19T23:24:56.231Z,1.90
2023-05-19T23:27:22.935Z,2.30
2023-05-19T23:29:51.799Z,2.75
2023-05-19T23:32:18.509Z,2.30
2023-05-19T23:34:47.376Z,2.25
2023-05-19T23:37:14.077Z,2.20
2023-05-19T23:39:40.738Z,2.70
2023-05-19T23:42:07.425Z,1.75
2023-05-19T23:44:34.064Z,2.55
2023-05-19T23:47:00.801Z,2.80
2023-05-19T23:49:27.567Z,2.38
2023-05-19T23:51:54.499Z,2.20
2023-05-19T23:54:21.384Z,2.50
2023-05-19T23:56:48.090Z,2.13
2023-05-19T23:59:14.757Z,2.30
